sensor_id;sensor_type;location;lat;lon;timestamp;P1;durP1;ratioP1;P2;durP2;ratioP2
11298;SDS011;5705;49.006;12.100;2022-08-04T00:00:43;2.13;;;1.20;;
11298;SDS011;5705;49.006;12.100;2022-08-04T00:03:18;1.67;;;1.23;;
11298;SDS011;5705;49.006;12.100;2022-08-04T00:05:56;1.90;;;1.30;;
11298;SDS011;5705;49.006;12.100;2022-08-04T00:08:35;2.20;;;1.20;;
11298;SDS011;5705;49.006;12.100;2022-08-04T00:11:08;3.73;;;1.30;;
11298;SDS011;5705;49.006;12.100;2022-08-04T00:13:41;2.77;;;1.20;;
11298;SDS011;5705;49.006;12.100;2022-08-04T00:16:29;2.33;;;1.50;;
11298;SDS011;5705;49.006;12.100;2022-08-04T00:19:04;1.37;;;1.27;;
11298;SDS011;5705;49.006;12.100;2022-08-04T00:21:37;1.50;;;1.40;;
11298;SDS011;5705;49.006;12.100;2022-08-04T00:24:08;2.27;;;1.37;;
11298;SDS011;5705;49.006;12.100;2022-08-04T00:26:38;1.53;;;1.43;;
11298;SDS011;5705;49.006;12.100;2022-08-04T00:29:06;1.47;;;1.30;;
11298;SDS011;5705;49.006;12.100;2022-08-04T00:31:34;2.03;;;1.27;;
11298;SDS011;5705;49.006;12.100;2022-08-04T00:34:22;3.23;;;1.50;;
11298;SDS011;5705;49.006;12.100;2022-08-04T00:36:51;2.10;;;1.30;;
11298;SDS011;5705;49.006;12.100;2022-08-04T00:39:21;1.37;;;1.27;;
11298;SDS011;5705;49.006;12.100;2022-08-04T00:41:58;1.87;;;1.40;;
11298;SDS011;5705;49.006;12.100;2022-08-04T00:44:42;3.33;;;1.77;;
11298;SDS011;5705;49.006;12.100;2022-08-04T00:47:22;2.10;;;1.43;;
11298;SDS011;5705;49.006;12.100;2022-08-04T00:50:02;3.00;;;1.50;;
11298;SDS011;5705;49.006;12.100;2022-08-04T00:52:35;2.40;;;1.50;;
11298;SDS011;5705;49.006;12.100;2022-08-04T00:55:20;2.70;;;1.53;;
11298;SDS011;5705;49.006;12.100;2022-08-04T00:58:02;1.80;;;1.70;;
11298;SDS011;5705;49.006;12.100;2022-08-04T01:00:41;4.63;;;1.57;;
11298;SDS011;5705;49.006;12.100;2022-08-04T01:03:13;1.27;;;1.27;;
11298;SDS011;5705;49.006;12.100;2022-08-04T01:05:48;1.70;;;1.60;;
11298;SDS011;5705;49.006;12.100;2022-08-04T01:11:30;1.47;;;1.37;;
11298;SDS011;5705;49.006;12.100;2022-08-04T01:14:25;1.30;;;1.30;;
11298;SDS011;5705;49.006;12.100;2022-08-04T01:17:18;1.83;;;1.43;;
11298;SDS011;5705;49.006;12.100;2022-08-04T01:20:00;1.77;;;1.60;;
11298;SDS011;5705;49.006;12.100;2022-08-04T01:25:55;2.20;;;1.63;;
11298;SDS011;5705;49.006;12.100;2022-08-04T01:29:06;1.33;;;1.23;;
11298;SDS011;5705;49.006;12.100;2022-08-04T01:31:41;2.23;;;1.90;;
11298;SDS011;5705;49.006;12.100;2022-08-04T01:34:15;1.37;;;1.27;;
11298;SDS011;5705;49.006;12.100;2022-08-04T01:36:57;1.60;;;1.50;;
11298;SDS011;5705;49.006;12.100;2022-08-04T01:39:32;2.03;;;1.93;;
11298;SDS011;5705;49.006;12.100;2022-08-04T01:42:08;2.50;;;2.30;;
11298;SDS011;5705;49.006;12.100;2022-08-04T01:44:49;1.47;;;1.37;;
11298;SDS011;5705;49.006;12.100;2022-08-04T01:47:19;2.77;;;2.57;;
11298;SDS011;5705;49.006;12.100;2022-08-04T01:49:48;4.80;;;3.03;;
11298;SDS011;5705;49.006;12.100;2022-08-04T01:52:17;3.03;;;2.30;;
11298;SDS011;5705;49.006;12.100;2022-08-04T01:54:46;3.43;;;3.20;;
11298;SDS011;5705;49.006;12.100;2022-08-04T01:57:14;3.23;;;2.97;;
11298;SDS011;5705;49.006;12.100;2022-08-04T02:00:06;3.90;;;3.60;;
11298;SDS011;5705;49.006;12.100;2022-08-04T02:02:35;3.50;;;3.20;;
11298;SDS011;5705;49.006;12.100;2022-08-04T02:05:03;2.77;;;2.67;;
11298;SDS011;5705;49.006;12.100;2022-08-04T02:07:38;3.00;;;2.80;;
11298;SDS011;5705;49.006;12.100;2022-08-04T02:10:11;3.37;;;2.57;;
11298;SDS011;5705;49.006;12.100;2022-08-04T02:12:51;3.93;;;3.63;;
11298;SDS011;5705;49.006;12.100;2022-08-04T02:15:24;3.10;;;2.90;;
11298;SDS011;5705;49.006;12.100;2022-08-04T02:18:02;2.70;;;2.50;;
11298;SDS011;5705;49.006;12.100;2022-08-04T02:20:32;3.30;;;3.03;;
11298;SDS011;5705;49.006;12.100;2022-08-04T02:23:02;5.47;;;2.70;;
11298;SDS011;5705;49.006;12.100;2022-08-04T02:25:34;1.80;;;1.70;;
11298;SDS011;5705;49.006;12.100;2022-08-04T02:28:09;1.93;;;1.60;;
11298;SDS011;5705;49.006;12.100;2022-08-04T02:30:42;1.53;;;1.43;;
11298;SDS011;5705;49.006;12.100;2022-08-04T02:33:17;1.80;;;1.67;;
11298;SDS011;5705;49.006;12.100;2022-08-04T02:36:02;1.60;;;1.50;;
11298;SDS011;5705;49.006;12.100;2022-08-04T02:38:38;1.80;;;1.57;;
11298;SDS011;5705;49.006;12.100;2022-08-04T02:41:09;1.70;;;1.60;;
11298;SDS011;5705;49.006;12.100;2022-08-04T02:43:37;2.83;;;1.77;;
11298;SDS011;5705;49.006;12.100;2022-08-04T02:46:19;2.07;;;1.90;;
11298;SDS011;5705;49.006;12.100;2022-08-04T02:48:48;2.43;;;1.83;;
11298;SDS011;5705;49.006;12.100;2022-08-04T02:51:17;3.77;;;2.40;;
11298;SDS011;5705;49.006;12.100;2022-08-04T02:53:48;2.20;;;1.80;;
11298;SDS011;5705;49.006;12.100;2022-08-04T02:56:17;2.10;;;2.00;;
11298;SDS011;5705;49.006;12.100;2022-08-04T02:58:48;2.30;;;2.20;;
11298;SDS011;5705;49.006;12.100;2022-08-04T03:01:20;1.93;;;1.80;;
11298;SDS011;5705;49.006;12.100;2022-08-04T03:03:50;2.60;;;2.40;;
11298;SDS011;5705;49.006;12.100;2022-08-04T03:12:38;4.33;;;3.70;;
11298;SDS011;5705;49.006;12.100;2022-08-04T03:15:35;4.40;;;2.93;;
11298;SDS011;5705;49.006;12.100;2022-08-04T03:18:28;2.33;;;2.13;;
11298;SDS011;5705;49.006;12.100;2022-08-04T03:21:19;3.17;;;2.47;;
11298;SDS011;5705;49.006;12.100;2022-08-04T03:23:59;2.30;;;2.10;;
11298;SDS011;5705;49.006;12.100;2022-08-04T03:26:59;2.90;;;2.27;;
11298;SDS011;5705;49.006;12.100;2022-08-04T03:29:59;4.60;;;4.20;;
11298;SDS011;5705;49.006;12.100;2022-08-04T03:32:42;3.67;;;2.90;;
11298;SDS011;5705;49.006;12.100;2022-08-04T03:35:39;2.80;;;2.53;;
11298;SDS011;5705;49.006;12.100;2022-08-04T03:38:28;3.00;;;2.80;;
11298;SDS011;5705;49.006;12.100;2022-08-04T03:41:26;2.17;;;2.07;;
11298;SDS011;5705;49.006;12.100;2022-08-04T03:44:29;2.50;;;2.30;;
11298;SDS011;5705;49.006;12.100;2022-08-04T03:47:15;2.57;;;2.37;;
11298;SDS011;5705;49.006;12.100;2022-08-04T03:50:05;2.65;;;2.45;;
11298;SDS011;5705;49.006;12.100;2022-08-04T03:52:55;2.33;;;2.13;;
11298;SDS011;5705;49.006;12.100;2022-08-04T03:55:40;2.33;;;1.93;;
11298;SDS011;5705;49.006;12.100;2022-08-04T04:01:04;2.30;;;2.17;;
11298;SDS011;5705;49.006;12.100;2022-08-04T04:03:44;2.27;;;2.17;;
11298;SDS011;5705;49.006;12.100;2022-08-04T04:06:33;2.67;;;2.47;;
11298;SDS011;5705;49.006;12.100;2022-08-04T04:09:30;3.10;;;2.27;;
11298;SDS011;5705;49.006;12.100;2022-08-04T04:12:27;2.10;;;1.90;;
11298;SDS011;5705;49.006;12.100;2022-08-04T04:15:03;2.07;;;1.60;;
11298;SDS011;5705;49.006;12.100;2022-08-04T04:17:49;1.73;;;1.63;;
11298;SDS011;5705;49.006;12.100;2022-08-04T04:20:32;3.40;;;2.40;;
11298;SDS011;5705;49.006;12.100;2022-08-04T04:23:14;2.97;;;2.67;;
11298;SDS011;5705;49.006;12.100;2022-08-04T04:26:05;4.27;;;2.10;;
11298;SDS011;5705;49.006;12.100;2022-08-04T04:31:32;1.77;;;1.67;;
11298;SDS011;5705;49.006;12.100;2022-08-04T04:34:07;3.37;;;2.33;;
11298;SDS011;5705;49.006;12.100;2022-08-04T04:36:43;2.30;;;2.13;;
11298;SDS011;5705;49.006;12.100;2022-08-04T04:39:19;2.57;;;2.20;;
11298;SDS011;5705;49.006;12.100;2022-08-04T04:42:00;3.17;;;2.80;;
11298;SDS011;5705;49.006;12.100;2022-08-04T04:44:47;2.93;;;2.53;;
11298;SDS011;5705;49.006;12.100;2022-08-04T04:47:28;3.50;;;3.17;;
11298;SDS011;5705;49.006;12.100;2022-08-04T04:50:23;3.13;;;2.93;;
11298;SDS011;5705;49.006;12.100;2022-08-04T04:53:04;2.97;;;2.77;;
11298;SDS011;5705;49.006;12.100;2022-08-04T04:55:39;3.57;;;3.13;;
11298;SDS011;5705;49.006;12.100;2022-08-04T04:58:15;2.70;;;2.50;;
11298;SDS011;5705;49.006;12.100;2022-08-04T05:01:11;5.23;;;3.10;;
11298;SDS011;5705;49.006;12.100;2022-08-04T05:03:59;3.30;;;2.47;;
11298;SDS011;5705;49.006;12.100;2022-08-04T05:06:37;7.13;;;4.47;;
11298;SDS011;5705;49.006;12.100;2022-08-04T05:09:22;5.10;;;4.27;;
11298;SDS011;5705;49.006;12.100;2022-08-04T05:12:09;6.83;;;5.00;;
11298;SDS011;5705;49.006;12.100;2022-08-04T05:15:06;4.47;;;4.10;;
11298;SDS011;5705;49.006;12.100;2022-08-04T05:17:35;3.70;;;3.37;;
11298;SDS011;5705;49.006;12.100;2022-08-04T05:20:06;3.10;;;2.67;;
11298;SDS011;5705;49.006;12.100;2022-08-04T05:22:36;2.73;;;2.53;;
11298;SDS011;5705;49.006;12.100;2022-08-04T05:25:07;9.33;;;8.13;;
11298;SDS011;5705;49.006;12.100;2022-08-04T05:27:40;6.03;;;4.53;;
11298;SDS011;5705;49.006;12.100;2022-08-04T05:30:13;2.97;;;2.60;;
11298;SDS011;5705;49.006;12.100;2022-08-04T05:32:44;4.53;;;3.17;;
11298;SDS011;5705;49.006;12.100;2022-08-04T05:35:20;6.13;;;3.00;;
11298;SDS011;5705;49.006;12.100;2022-08-04T05:38:13;2.80;;;2.43;;
11298;SDS011;5705;49.006;12.100;2022-08-04T05:40:42;4.90;;;2.40;;
11298;SDS011;5705;49.006;12.100;2022-08-04T05:43:10;2.43;;;2.33;;
11298;SDS011;5705;49.006;12.100;2022-08-04T05:45:40;4.13;;;2.63;;
11298;SDS011;5705;49.006;12.100;2022-08-04T05:48:08;5.50;;;2.30;;
11298;SDS011;5705;49.006;12.100;2022-08-04T05:50:36;6.00;;;2.63;;
11298;SDS011;5705;49.006;12.100;2022-08-04T05:53:05;2.87;;;2.10;;
11298;SDS011;5705;49.006;12.100;2022-08-04T05:55:34;2.30;;;2.10;;
11298;SDS011;5705;49.006;12.100;2022-08-04T05:58:22;2.53;;;2.33;;
11298;SDS011;5705;49.006;12.100;2022-08-04T06:00:51;3.20;;;2.53;;
11298;SDS011;5705;49.006;12.100;2022-08-04T06:03:21;2.20;;;2.10;;
11298;SDS011;5705;49.006;12.100;2022-08-04T06:05:50;2.33;;;2.10;;
11298;SDS011;5705;49.006;12.100;2022-08-04T06:08:18;2.40;;;2.20;;
11298;SDS011;5705;49.006;12.100;2022-08-04T06:10:45;9.23;;;4.23;;
11298;SDS011;5705;49.006;12.100;2022-08-04T06:13:16;4.83;;;3.13;;
11298;SDS011;5705;49.006;12.100;2022-08-04T06:16:07;3.40;;;2.80;;
11298;SDS011;5705;49.006;12.100;2022-08-04T06:18:56;2.73;;;2.20;;
11298;SDS011;5705;49.006;12.100;2022-08-04T06:21:46;2.80;;;2.47;;
11298;SDS011;5705;49.006;12.100;2022-08-04T06:24:19;2.57;;;2.40;;
11298;SDS011;5705;49.006;12.100;2022-08-04T06:26:48;3.20;;;2.13;;
11298;SDS011;5705;49.006;12.100;2022-08-04T06:29:17;2.70;;;2.50;;
11298;SDS011;5705;49.006;12.100;2022-08-04T06:31:51;3.90;;;2.30;;
11298;SDS011;5705;49.006;12.100;2022-08-04T06:34:47;5.50;;;2.67;;
11298;SDS011;5705;49.006;12.100;2022-08-04T06:37:15;2.60;;;2.40;;
11298;SDS011;5705;49.006;12.100;2022-08-04T06:40:04;2.53;;;2.10;;
11298;SDS011;5705;49.006;12.100;2022-08-04T06:42:54;4.37;;;2.87;;
11298;SDS011;5705;49.006;12.100;2022-08-04T06:45:22;2.53;;;2.33;;
11298;SDS011;5705;49.006;12.100;2022-08-04T06:47:52;2.30;;;2.10;;
11298;SDS011;5705;49.006;12.100;2022-08-04T06:50:21;2.10;;;2.00;;
11298;SDS011;5705;49.006;12.100;2022-08-04T06:53:10;2.43;;;2.23;;
11298;SDS011;5705;49.006;12.100;2022-08-04T06:55:38;2.13;;;1.90;;
11298;SDS011;5705;49.006;12.100;2022-08-04T06:58:07;3.87;;;1.97;;
11298;SDS011;5705;49.006;12.100;2022-08-04T07:00:37;2.40;;;2.20;;
11298;SDS011;5705;49.006;12.100;2022-08-04T07:03:07;2.43;;;1.90;;
11298;SDS011;5705;49.006;12.100;2022-08-04T07:05:34;3.27;;;2.47;;
11298;SDS011;5705;49.006;12.100;2022-08-04T07:08:02;2.30;;;2.07;;
11298;SDS011;5705;49.006;12.100;2022-08-04T07:10:31;2.87;;;2.10;;
11298;SDS011;5705;49.006;12.100;2022-08-04T07:12:59;3.97;;;2.07;;
11298;SDS011;5705;49.006;12.100;2022-08-04T07:15:27;5.80;;;2.00;;
11298;SDS011;5705;49.006;12.100;2022-08-04T07:17:56;6.07;;;2.27;;
11298;SDS011;5705;49.006;12.100;2022-08-04T07:20:27;5.53;;;2.00;;
11298;SDS011;5705;49.006;12.100;2022-08-04T07:23:02;2.07;;;1.90;;
11298;SDS011;5705;49.006;12.100;2022-08-04T07:25:29;2.17;;;2.00;;
11298;SDS011;5705;49.006;12.100;2022-08-04T07:28:18;3.83;;;2.10;;
11298;SDS011;5705;49.006;12.100;2022-08-04T07:30:47;2.63;;;2.43;;
11298;SDS011;5705;49.006;12.100;2022-08-04T07:33:16;5.07;;;2.83;;
11298;SDS011;5705;49.006;12.100;2022-08-04T07:35:46;2.10;;;1.90;;
11298;SDS011;5705;49.006;12.100;2022-08-04T07:38:36;1.70;;;1.60;;
11298;SDS011;5705;49.006;12.100;2022-08-04T07:41:19;1.67;;;1.57;;
11298;SDS011;5705;49.006;12.100;2022-08-04T07:44:03;2.47;;;1.53;;
11298;SDS011;5705;49.006;12.100;2022-08-04T07:46:32;3.33;;;1.70;;
11298;SDS011;5705;49.006;12.100;2022-08-04T07:49:00;3.10;;;1.70;;
11298;SDS011;5705;49.006;12.100;2022-08-04T07:51:31;2.00;;;1.87;;
11298;SDS011;5705;49.006;12.100;2022-08-04T07:54:00;2.43;;;2.00;;
11298;SDS011;5705;49.006;12.100;2022-08-04T07:56:30;1.50;;;1.50;;
11298;SDS011;5705;49.006;12.100;2022-08-04T07:58:58;4.10;;;1.50;;
11298;SDS011;5705;49.006;12.100;2022-08-04T08:01:26;2.47;;;1.37;;
11298;SDS011;5705;49.006;12.100;2022-08-04T08:03:55;3.22;;;1.92;;
11298;SDS011;5705;49.006;12.100;2022-08-04T08:06:23;1.48;;;1.48;;
11298;SDS011;5705;49.006;12.100;2022-08-04T08:09:01;3.90;;;1.70;;
11298;SDS011;5705;49.006;12.100;2022-08-04T08:11:39;1.92;;;1.48;;
11298;SDS011;5705;49.006;12.100;2022-08-04T08:14:27;1.67;;;1.58;;
11298;SDS011;5705;49.006;12.100;2022-08-04T08:16:55;1.58;;;1.50;;
11298;SDS011;5705;49.006;12.100;2022-08-04T08:19:25;3.80;;;1.52;;
11298;SDS011;5705;49.006;12.100;2022-08-04T08:21:52;1.38;;;1.38;;
11298;SDS011;5705;49.006;12.100;2022-08-04T08:24:26;1.80;;;1.70;;
11298;SDS011;5705;49.006;12.100;2022-08-04T08:26:54;1.73;;;1.63;;
11298;SDS011;5705;49.006;12.100;2022-08-04T08:29:22;4.43;;;1.98;;
11298;SDS011;5705;49.006;12.100;2022-08-04T08:31:51;3.15;;;2.13;;
11298;SDS011;5705;49.006;12.100;2022-08-04T08:34:25;3.03;;;2.22;;
11298;SDS011;5705;49.006;12.100;2022-08-04T08:36:56;2.45;;;2.25;;
11298;SDS011;5705;49.006;12.100;2022-08-04T08:39:30;2.08;;;1.98;;
11298;SDS011;5705;49.006;12.100;2022-08-04T08:48:05;2.72;;;2.50;;
11298;SDS011;5705;49.006;12.100;2022-08-04T08:50:55;2.53;;;2.33;;
11298;SDS011;5705;49.006;12.100;2022-08-04T08:53:49;3.65;;;2.15;;
11298;SDS011;5705;49.006;12.100;2022-08-04T08:56:27;2.78;;;2.10;;
11298;SDS011;5705;49.006;12.100;2022-08-04T08:59:04;3.20;;;1.73;;
11298;SDS011;5705;49.006;12.100;2022-08-04T09:01:48;2.80;;;2.50;;
11298;SDS011;5705;49.006;12.100;2022-08-04T09:07:22;1.60;;;1.60;;
11298;SDS011;5705;49.006;12.100;2022-08-04T09:10:11;3.60;;;1.83;;
11298;SDS011;5705;49.006;12.100;2022-08-04T09:12:49;1.55;;;1.45;;
11298;SDS011;5705;49.006;12.100;2022-08-04T09:15:21;2.72;;;1.90;;
11298;SDS011;5705;49.006;12.100;2022-08-04T09:17:56;2.78;;;2.53;;
11298;SDS011;5705;49.006;12.100;2022-08-04T09:20:28;3.33;;;2.30;;
11298;SDS011;5705;49.006;12.100;2022-08-04T09:23:05;2.50;;;1.90;;
11298;SDS011;5705;49.006;12.100;2022-08-04T09:25:37;2.05;;;1.60;;
11298;SDS011;5705;49.006;12.100;2022-08-04T09:28:10;1.92;;;1.65;;
11298;SDS011;5705;49.006;12.100;2022-08-04T09:31:08;3.70;;;1.67;;
11298;SDS011;5705;49.006;12.100;2022-08-04T09:33:41;5.05;;;1.52;;
11298;SDS011;5705;49.006;12.100;2022-08-04T09:36:14;2.75;;;1.60;;
11298;SDS011;5705;49.006;12.100;2022-08-04T09:38:57;4.50;;;2.00;;
11298;SDS011;5705;49.006;12.100;2022-08-04T09:41:32;4.50;;;2.53;;
11298;SDS011;5705;49.006;12.100;2022-08-04T09:44:17;2.30;;;1.75;;
11298;SDS011;5705;49.006;12.100;2022-08-04T09:47:14;1.50;;;1.40;;
11298;SDS011;5705;49.006;12.100;2022-08-04T09:49:46;3.28;;;1.60;;
11298;SDS011;5705;49.006;12.100;2022-08-04T09:52:21;1.80;;;1.70;;
11298;SDS011;5705;49.006;12.100;2022-08-04T09:54:58;2.00;;;1.90;;
11298;SDS011;5705;49.006;12.100;2022-08-04T09:57:35;3.30;;;1.83;;
11298;SDS011;5705;49.006;12.100;2022-08-04T10:00:10;3.53;;;1.70;;
11298;SDS011;5705;49.006;12.100;2022-08-04T10:02:43;1.67;;;1.50;;
11298;SDS011;5705;49.006;12.100;2022-08-04T10:05:13;2.42;;;1.80;;
11298;SDS011;5705;49.006;12.100;2022-08-04T10:07:58;2.00;;;1.60;;
11298;SDS011;5705;49.006;12.100;2022-08-04T10:10:46;4.55;;;1.60;;
11298;SDS011;5705;49.006;12.100;2022-08-04T10:13:23;1.30;;;1.30;;
11298;SDS011;5705;49.006;12.100;2022-08-04T10:15:59;1.90;;;1.67;;
11298;SDS011;5705;49.006;12.100;2022-08-04T10:18:46;2.08;;;1.70;;
11298;SDS011;5705;49.006;12.100;2022-08-04T10:21:18;7.75;;;1.80;;
11298;SDS011;5705;49.006;12.100;2022-08-04T10:23:57;2.45;;;1.88;;
11298;SDS011;5705;49.006;12.100;2022-08-04T10:26:35;2.50;;;1.83;;
11298;SDS011;5705;49.006;12.100;2022-08-04T10:29:13;1.88;;;1.70;;
11298;SDS011;5705;49.006;12.100;2022-08-04T10:31:51;2.05;;;1.63;;
11298;SDS011;5705;49.006;12.100;2022-08-04T10:34:25;1.30;;;1.30;;
11298;SDS011;5705;49.006;12.100;2022-08-04T10:36:55;1.70;;;1.17;;
11298;SDS011;5705;49.006;12.100;2022-08-04T10:39:29;1.20;;;1.20;;
11298;SDS011;5705;49.006;12.100;2022-08-04T10:42:11;0.98;;;0.98;;
11298;SDS011;5705;49.006;12.100;2022-08-04T10:44:48;1.20;;;1.20;;
11298;SDS011;5705;49.006;12.100;2022-08-04T10:47:25;1.05;;;1.05;;
11298;SDS011;5705;49.006;12.100;2022-08-04T10:50:00;1.10;;;1.10;;
11298;SDS011;5705;49.006;12.100;2022-08-04T10:52:30;1.15;;;1.15;;
11298;SDS011;5705;49.006;12.100;2022-08-04T10:55:02;1.38;;;1.25;;
11298;SDS011;5705;49.006;12.100;2022-08-04T10:57:33;1.00;;;1.00;;
11298;SDS011;5705;49.006;12.100;2022-08-04T11:00:04;1.10;;;1.10;;
11298;SDS011;5705;49.006;12.100;2022-08-04T11:02:40;2.22;;;1.05;;
11298;SDS011;5705;49.006;12.100;2022-08-04T11:05:14;3.53;;;1.38;;
11298;SDS011;5705;49.006;12.100;2022-08-04T11:07:46;1.10;;;1.10;;
11298;SDS011;5705;49.006;12.100;2022-08-04T11:10:17;1.20;;;1.10;;
11298;SDS011;5705;49.006;12.100;2022-08-04T11:12:53;0.70;;;0.70;;
11298;SDS011;5705;49.006;12.100;2022-08-04T11:15:24;1.33;;;1.00;;
11298;SDS011;5705;49.006;12.100;2022-08-04T11:17:59;1.30;;;1.25;;
11298;SDS011;5705;49.006;12.100;2022-08-04T11:20:41;3.20;;;1.17;;
11298;SDS011;5705;49.006;12.100;2022-08-04T11:23:13;1.02;;;1.00;;
11298;SDS011;5705;49.006;12.100;2022-08-04T11:25:45;1.65;;;1.00;;
11298;SDS011;5705;49.006;12.100;2022-08-04T11:28:23;1.23;;;1.13;;
11298;SDS011;5705;49.006;12.100;2022-08-04T11:31:03;1.27;;;0.80;;
11298;SDS011;5705;49.006;12.100;2022-08-04T11:33:36;1.20;;;1.10;;
11298;SDS011;5705;49.006;12.100;2022-08-04T11:36:13;2.28;;;1.13;;
11298;SDS011;5705;49.006;12.100;2022-08-04T11:38:46;0.82;;;0.82;;
11298;SDS011;5705;49.006;12.100;2022-08-04T11:41:18;0.98;;;0.98;;
11298;SDS011;5705;49.006;12.100;2022-08-04T11:43:50;5.50;;;1.13;;
11298;SDS011;5705;49.006;12.100;2022-08-04T11:46:29;1.15;;;1.10;;
11298;SDS011;5705;49.006;12.100;2022-08-04T11:49:04;1.00;;;0.98;;
11298;SDS011;5705;49.006;12.100;2022-08-04T11:51:33;0.82;;;0.82;;
11298;SDS011;5705;49.006;12.100;2022-08-04T11:54:02;1.17;;;1.00;;
11298;SDS011;5705;49.006;12.100;2022-08-04T11:56:30;1.10;;;1.10;;
11298;SDS011;5705;49.006;12.100;2022-08-04T11:59:03;3.67;;;1.20;;
11298;SDS011;5705;49.006;12.100;2022-08-04T12:01:33;1.00;;;1.00;;
11298;SDS011;5705;49.006;12.100;2022-08-04T12:04:06;1.15;;;1.15;;
11298;SDS011;5705;49.006;12.100;2022-08-04T12:06:41;2.15;;;1.00;;
11298;SDS011;5705;49.006;12.100;2022-08-04T12:09:27;1.50;;;1.10;;
11298;SDS011;5705;49.006;12.100;2022-08-04T12:12:01;0.90;;;0.90;;
11298;SDS011;5705;49.006;12.100;2022-08-04T12:14:38;2.85;;;1.20;;
11298;SDS011;5705;49.006;12.100;2022-08-04T12:17:10;1.17;;;1.10;;
11298;SDS011;5705;49.006;12.100;2022-08-04T12:19:45;1.23;;;1.23;;
11298;SDS011;5705;49.006;12.100;2022-08-04T12:22:31;1.80;;;1.00;;
11298;SDS011;5705;49.006;12.100;2022-08-04T12:25:06;1.80;;;0.90;;
11298;SDS011;5705;49.006;12.100;2022-08-04T12:27:36;1.42;;;1.20;;
11298;SDS011;5705;49.006;12.100;2022-08-04T12:30:08;1.13;;;1.08;;
11298;SDS011;5705;49.006;12.100;2022-08-04T12:32:58;1.00;;;1.00;;
11298;SDS011;5705;49.006;12.100;2022-08-04T12:35:32;0.73;;;0.73;;
11298;SDS011;5705;49.006;12.100;2022-08-04T12:38:02;1.83;;;1.25;;
11298;SDS011;5705;49.006;12.100;2022-08-04T12:40:32;1.10;;;1.10;;
11298;SDS011;5705;49.006;12.100;2022-08-04T12:43:05;1.20;;;1.05;;
11298;SDS011;5705;49.006;12.100;2022-08-04T12:45:40;0.85;;;0.85;;
11298;SDS011;5705;49.006;12.100;2022-08-04T12:48:13;2.45;;;0.80;;
11298;SDS011;5705;49.006;12.100;2022-08-04T12:50:48;3.17;;;1.10;;
11298;SDS011;5705;49.006;12.100;2022-08-04T12:53:17;0.90;;;0.90;;
11298;SDS011;5705;49.006;12.100;2022-08-04T12:55:57;1.05;;;1.05;;
11298;SDS011;5705;49.006;12.100;2022-08-04T12:58:28;1.30;;;1.27;;
11298;SDS011;5705;49.006;12.100;2022-08-04T13:01:10;1.00;;;1.00;;
11298;SDS011;5705;49.006;12.100;2022-08-04T13:03:59;1.23;;;1.13;;
11298;SDS011;5705;49.006;12.100;2022-08-04T13:06:31;0.98;;;0.98;;
11298;SDS011;5705;49.006;12.100;2022-08-04T13:09:02;0.90;;;0.90;;
11298;SDS011;5705;49.006;12.100;2022-08-04T13:11:35;1.63;;;1.02;;
11298;SDS011;5705;49.006;12.100;2022-08-04T13:14:08;1.17;;;0.93;;
11298;SDS011;5705;49.006;12.100;2022-08-04T13:16:55;3.95;;;1.73;;
11298;SDS011;5705;49.006;12.100;2022-08-04T13:19:23;1.27;;;1.20;;
11298;SDS011;5705;49.006;12.100;2022-08-04T13:21:55;1.75;;;0.93;;
11298;SDS011;5705;49.006;12.100;2022-08-04T13:24:28;1.20;;;1.10;;
11298;SDS011;5705;49.006;12.100;2022-08-04T13:27:03;1.33;;;1.00;;
11298;SDS011;5705;49.006;12.100;2022-08-04T13:29:35;1.05;;;1.05;;
11298;SDS011;5705;49.006;12.100;2022-08-04T13:32:25;0.98;;;0.98;;
11298;SDS011;5705;49.006;12.100;2022-08-04T13:34:54;1.13;;;1.13;;
11298;SDS011;5705;49.006;12.100;2022-08-04T13:37:25;0.77;;;0.68;;
11298;SDS011;5705;49.006;12.100;2022-08-04T13:39:57;0.77;;;0.77;;
11298;SDS011;5705;49.006;12.100;2022-08-04T13:42:25;1.02;;;0.95;;
11298;SDS011;5705;49.006;12.100;2022-08-04T13:44:55;1.20;;;1.10;;
11298;SDS011;5705;49.006;12.100;2022-08-04T13:47:24;1.45;;;1.40;;
11298;SDS011;5705;49.006;12.100;2022-08-04T13:52:51;1.33;;;1.33;;
11298;SDS011;5705;49.006;12.100;2022-08-04T13:55:21;1.00;;;1.00;;
11298;SDS011;5705;49.006;12.100;2022-08-04T13:57:52;0.90;;;0.90;;
11298;SDS011;5705;49.006;12.100;2022-08-04T14:00:24;2.72;;;1.10;;
11298;SDS011;5705;49.006;12.100;2022-08-04T14:03:04;0.90;;;0.90;;
11298;SDS011;5705;49.006;12.100;2022-08-04T14:06:05;0.93;;;0.93;;
11298;SDS011;5705;49.006;12.100;2022-08-04T14:08:42;1.55;;;1.45;;
11298;SDS011;5705;49.006;12.100;2022-08-04T14:11:14;1.65;;;0.90;;
11298;SDS011;5705;49.006;12.100;2022-08-04T14:14:11;1.20;;;1.10;;
11298;SDS011;5705;49.006;12.100;2022-08-04T14:16:53;1.45;;;1.35;;
11298;SDS011;5705;49.006;12.100;2022-08-04T14:19:21;0.80;;;0.80;;
11298;SDS011;5705;49.006;12.100;2022-08-04T14:21:55;1.00;;;1.00;;
11298;SDS011;5705;49.006;12.100;2022-08-04T14:24:25;3.47;;;1.10;;
11298;SDS011;5705;49.006;12.100;2022-08-04T14:26:57;1.10;;;1.10;;
11298;SDS011;5705;49.006;12.100;2022-08-04T14:29:28;1.95;;;0.90;;
11298;SDS011;5705;49.006;12.100;2022-08-04T14:32:03;0.90;;;0.90;;
11298;SDS011;5705;49.006;12.100;2022-08-04T14:34:41;1.58;;;0.90;;
11298;SDS011;5705;49.006;12.100;2022-08-04T14:37:12;1.00;;;1.00;;
11298;SDS011;5705;49.006;12.100;2022-08-04T14:39:46;2.00;;;0.95;;
11298;SDS011;5705;49.006;12.100;2022-08-04T14:42:39;1.00;;;1.00;;
11298;SDS011;5705;49.006;12.100;2022-08-04T14:45:08;1.88;;;1.77;;
11298;SDS011;5705;49.006;12.100;2022-08-04T14:47:37;1.42;;;1.35;;
11298;SDS011;5705;49.006;12.100;2022-08-04T14:50:06;1.20;;;1.20;;
11298;SDS011;5705;49.006;12.100;2022-08-04T14:52:35;1.17;;;1.00;;
11298;SDS011;5705;49.006;12.100;2022-08-04T14:55:17;1.20;;;0.77;;
11298;SDS011;5705;49.006;12.100;2022-08-04T14:57:46;0.82;;;0.82;;
11298;SDS011;5705;49.006;12.100;2022-08-04T15:00:35;0.80;;;0.80;;
11298;SDS011;5705;49.006;12.100;2022-08-04T15:03:03;0.93;;;0.93;;
11298;SDS011;5705;49.006;12.100;2022-08-04T15:05:34;1.00;;;1.00;;
11298;SDS011;5705;49.006;12.100;2022-08-04T15:08:22;0.88;;;0.88;;
11298;SDS011;5705;49.006;12.100;2022-08-04T15:10:58;1.15;;;1.10;;
11298;SDS011;5705;49.006;12.100;2022-08-04T15:13:28;0.80;;;0.80;;
11298;SDS011;5705;49.006;12.100;2022-08-04T15:15:57;1.63;;;0.82;;
11298;SDS011;5705;49.006;12.100;2022-08-04T15:18:33;1.15;;;1.13;;
11298;SDS011;5705;49.006;12.100;2022-08-04T15:21:04;0.90;;;0.90;;
11298;SDS011;5705;49.006;12.100;2022-08-04T15:23:32;1.35;;;1.35;;
11298;SDS011;5705;49.006;12.100;2022-08-04T15:26:07;1.08;;;1.08;;
11298;SDS011;5705;49.006;12.100;2022-08-04T15:28:37;1.13;;;1.13;;
11298;SDS011;5705;49.006;12.100;2022-08-04T15:31:07;1.33;;;1.33;;
11298;SDS011;5705;49.006;12.100;2022-08-04T15:33:56;1.20;;;1.20;;
11298;SDS011;5705;49.006;12.100;2022-08-04T15:36:26;1.13;;;1.10;;
11298;SDS011;5705;49.006;12.100;2022-08-04T15:39:04;0.88;;;0.88;;
11298;SDS011;5705;49.006;12.100;2022-08-04T15:41:43;0.95;;;0.95;;
11298;SDS011;5705;49.006;12.100;2022-08-04T15:44:35;1.45;;;1.33;;
11298;SDS011;5705;49.006;12.100;2022-08-04T15:47:16;1.05;;;1.05;;
11298;SDS011;5705;49.006;12.100;2022-08-04T15:49:45;1.20;;;1.20;;
11298;SDS011;5705;49.006;12.100;2022-08-04T15:52:29;1.33;;;1.15;;
11298;SDS011;5705;49.006;12.100;2022-08-04T15:55:38;1.00;;;1.00;;
11298;SDS011;5705;49.006;12.100;2022-08-04T15:58:09;1.02;;;1.02;;
11298;SDS011;5705;49.006;12.100;2022-08-04T16:03:46;1.00;;;1.00;;
11298;SDS011;5705;49.006;12.100;2022-08-04T16:09:22;1.15;;;1.15;;
11298;SDS011;5705;49.006;12.100;2022-08-04T16:12:24;2.00;;;1.48;;
11298;SDS011;5705;49.006;12.100;2022-08-04T16:15:36;4.68;;;1.30;;
11298;SDS011;5705;49.006;12.100;2022-08-04T16:18:09;2.50;;;1.98;;
11298;SDS011;5705;49.006;12.100;2022-08-04T16:20:53;2.40;;;1.58;;